Time;durP1;ratioP1;P1;durP2;ratioP2;P2;SDS_P1;SDS_P2;PMS_P1;PMS_P2;Temp;Humidity;BMP_temperature;BMP_pressure;BME280_temperature;BME280_humidity;BME280_pressure;Samples;Min_cycle;Max_cycle;Signal;HPM_P1;HPM_P2
2022/09/27 00:00:42;;;;;;;;;3.00;2.50;;;;;14.28;57.49;99776.56;5097576;27;45490;-39
2022/09/27 00:03:10;;;;;;;;;1.00;1.00;;;;;14.29;57.65;99772.13;5096418;27;46460;-39
2022/09/27 00:05:36;;;;;;;;;5.00;2.00;;;;;14.30;57.64;99771.22;5093877;27;64568;-39
2022/09/27 00:08:02;;;;;;;;;3.50;2.75;;;;;14.29;57.63;99766.88;5089420;27;45283;-39
2022/09/27 00:10:27;;;;;;;;;2.00;1.50;;;;;14.31;57.59;99776.41;5097872;27;45250;-39
2022/09/27 00:12:53;;;;;;;;;3.25;1.00;;;;;14.28;57.20;99778.34;5095597;27;47065;-39
2022/09/27 00:15:19;;;;;;;;;4.25;2.25;;;;;14.27;57.25;99776.66;5097279;27;45402;-39
2022/09/27 00:17:45;;;;;;;;;2.25;2.00;;;;;14.23;57.47;99766.28;5097957;27;45405;-39
2022/09/27 00:20:10;;;;;;;;;1.00;1.00;;;;;14.20;56.86;99771.75;5097302;27;45495;-39
2022/09/27 00:22:36;;;;;;;;;2.25;0.00;;;;;14.18;57.15;99778.91;5090084;27;66600;-39
2022/09/27 00:25:04;;;;;;;;;3.50;1.50;;;;;14.19;57.05;99782.38;5089221;27;51055;-39
2022/09/27 00:27:30;;;;;;;;;2.50;2.00;;;;;14.17;56.64;99782.44;5091114;27;45197;-39
2022/09/27 00:29:55;;;;;;;;;2.00;2.00;;;;;14.15;56.99;99789.59;5090647;27;45355;-39
2022/09/27 00:32:20;;;;;;;;;1.75;0.75;;;;;14.13;57.24;99785.34;5084506;27;68783;-39
2022/09/27 00:34:46;;;;;;;;;2.00;1.25;;;;;14.13;56.87;99801.13;5093815;27;45443;-39
2022/09/27 00:37:11;;;;;;;;;2.00;2.00;;;;;14.09;57.21;99803.06;5094756;27;45327;-39
2022/09/27 00:39:38;;;;;;;;;2.00;1.00;;;;;14.04;57.18;99805.13;5085549;27;63405;-39
2022/09/27 00:42:04;;;;;;;;;3.00;2.00;;;;;14.03;57.17;99799.00;5088243;27;45543;-39
2022/09/27 00:44:32;;;;;;;;;2.50;2.00;;;;;14.05;57.19;99805.03;5095345;27;45585;-39
2022/09/27 00:47:02;;;;;;;;;2.00;2.00;;;;;14.07;57.32;99806.75;5093333;27;45258;-39
2022/09/27 00:49:32;;;;;;;;;2.00;1.00;;;;;14.07;57.59;99802.31;5102886;27;45453;-39
2022/09/27 00:52:02;;;;;;;;;3.00;1.75;;;;;14.03;57.46;99804.28;5091859;27;45364;-39
2022/09/27 00:54:28;;;;;;;;;4.75;1.25;;;;;14.03;57.63;99812.16;5098442;27;45379;-39
2022/09/27 00:56:54;;;;;;;;;3.00;2.00;;;;;14.02;57.69;99809.63;5092113;27;45273;-39
2022/09/27 00:59:24;;;;;;;;;3.25;1.50;;;;;14.01;57.89;99814.03;5100666;27;45425;-39
2022/09/27 01:01:50;;;;;;;;;3.25;2.00;;;;;13.98;57.90;99816.84;5099019;27;45388;-39
2022/09/27 01:04:17;;;;;;;;;5.25;2.00;;;;;13.98;57.81;99818.63;5098079;27;59423;-39
2022/09/27 01:06:43;;;;;;;;;2.00;2.00;;;;;13.99;57.68;99812.44;5092969;27;45259;-38
2022/09/27 01:09:09;;;;;;;;;4.00;1.00;;;;;13.98;58.00;99813.38;5104177;27;45354;-38
2022/09/27 01:12:10;;;;;;;;;2.00;1.75;;;;;13.98;58.13;99821.25;5098748;27;45507;-37
2022/09/27 01:15:09;;;;;;;;;1.00;1.00;;;;;13.99;57.98;99820.34;5086132;27;45432;-38
2022/09/27 01:18:04;;;;;;;;;2.25;2.00;;;;;13.96;58.63;99820.50;5096898;27;45382;-38
2022/09/27 01:20:32;;;;;;;;;3.50;2.00;;;;;13.95;58.46;99822.28;5108202;27;45652;-38
2022/09/27 01:23:19;;;;;;;;;2.00;2.00;;;;;13.94;58.48;99825.84;5090266;27;45348;-38
2022/09/27 01:26:15;;;;;;;;;4.00;1.00;;;;;13.95;58.54;99827.56;5095824;27;45368;-38
2022/09/27 01:29:11;;;;;;;;;2.00;2.00;;;;;13.92;58.53;99827.72;5091836;27;45347;-38
2022/09/27 01:31:53;;;;;;;;;2.25;2.00;;;;;13.92;58.45;99821.63;5102965;27;46637;-38
2022/09/27 01:34:47;;;;;;;;;3.75;1.50;;;;;13.95;58.48;99824.06;5094759;27;45312;-38
2022/09/27 01:37:45;;;;;;;;;4.50;1.25;;;;;13.93;58.15;99826.75;5094371;27;46129;-38
2022/09/27 01:40:27;;;;;;;;;2.00;1.00;;;;;13.93;58.20;99832.03;5081148;27;45510;-38
2022/09/27 01:42:58;;;;;;;;;1.75;1.00;;;;;13.90;58.89;99834.84;5084838;27;45529;-38
2022/09/27 01:45:36;;;;;;;;;2.00;1.00;;;;;13.89;58.40;99827.03;5095182;27;45436;-38
2022/09/27 01:48:07;;;;;;;;;3.00;1.00;;;;;13.90;58.79;99828.72;5088271;27;45832;-39
2022/09/27 01:50:39;;;;;;;;;2.00;1.00;;;;;13.93;58.86;99831.19;5095829;27;45210;-38
2022/09/27 01:53:10;;;;;;;;;1.75;1.00;;;;;13.94;58.48;99835.53;5081762;27;45414;-38
2022/09/27 01:55:37;;;;;;;;;2.00;1.00;;;;;13.94;58.56;99823.22;5091808;27;46309;-38
2022/09/27 01:58:10;;;;;;;;;2.25;1.25;;;;;13.93;58.10;99821.50;5082906;27;45792;-39
2022/09/27 02:00:37;;;;;;;;;1.00;1.00;;;;;13.93;58.59;99831.19;5092723;27;45435;-39
2022/09/27 02:03:08;;;;;;;;;1.00;1.00;;;;;13.92;58.17;99834.75;5095165;27;52132;-39
2022/09/27 02:05:44;;;;;;;;;1.25;1.25;;;;;13.89;58.33;99834.94;5089014;27;47093;-39
2022/09/27 02:08:17;;;;;;;;;3.00;1.75;;;;;13.88;58.71;99839.31;5081949;27;46003;-39
2022/09/27 02:10:45;;;;;;;;;1.00;1.00;;;;;13.90;58.25;99841.88;5095392;27;45410;-39
2022/09/27 02:13:14;;;;;;;;;1.00;1.00;;;;;13.89;58.33;99835.75;5094673;27;45469;-39
2022/09/27 02:15:51;;;;;;;;;3.25;1.50;;;;;13.90;58.57;99828.72;5096403;27;46313;-38
2022/09/27 02:18:22;;;;;;;;;2.75;1.25;;;;;13.89;58.31;99829.66;5099281;27;45793;-38
2022/09/27 02:20:51;;;;;;;;;1.75;1.00;;;;;13.90;57.90;99829.59;5075988;27;46039;-39
2022/09/27 02:23:32;;;;;;;;;4.25;1.00;;;;;13.88;58.19;99825.31;5090593;27;45645;-38
2022/09/27 02:26:13;;;;;;;;;2.25;1.00;;;;;13.88;58.12;99820.06;5091501;27;45540;-38
2022/09/27 02:28:43;;;;;;;;;0.00;0.00;;;;;13.85;57.95;99815.84;5096358;27;45430;-39
2022/09/27 02:31:09;;;;;;;;;2.50;0.50;;;;;13.84;58.54;99816.75;5096232;27;45456;-37
2022/09/27 02:33:43;;;;;;;;;1.50;1.50;;;;;13.84;58.07;99817.59;5091601;27;45362;-38
2022/09/27 02:36:09;;;;;;;;;1.00;1.00;;;;;13.85;58.57;99816.69;5094824;27;45433;-38
2022/09/27 02:38:34;;;;;;;;;0.75;0.75;;;;;13.86;58.41;99817.50;5096791;27;45240;-38
2022/09/27 02:41:00;;;;;;;;;4.50;1.50;;;;;13.85;58.07;99808.78;5096378;27;47142;-38
2022/09/27 02:43:28;;;;;;;;;2.25;2.00;;;;;13.83;58.09;99818.53;5100082;27;45553;-38
2022/09/27 02:46:20;;;;;;;;;4.00;1.00;;;;;13.82;58.24;99823.88;5093912;27;46196;-37
2022/09/27 02:49:27;;;;;;;;;2.00;0.50;;;;;13.80;58.31;99817.88;5094687;27;45722;-38
2022/09/27 02:52:36;;;;;;;;;5.25;2.00;;;;;13.78;58.64;99823.22;5075571;27;45512;-38
2022/09/27 02:55:12;;;;;;;;;0.75;0.75;;;;;13.78;58.48;99817.13;5098467;27;45354;-37
2022/09/27 02:57:47;;;;;;;;;2.00;1.00;;;;;13.76;58.73;99811.09;5092990;27;46403;-38
2022/09/27 03:00:20;;;;;;;;;1.00;1.00;;;;;13.74;58.83;99823.44;5092626;27;45725;-38
2022/09/27 03:03:07;;;;;;;;;1.50;0.00;;;;;13.73;58.58;99822.59;5092354;27;45386;-38
2022/09/27 03:05:38;;;;;;;;;2.25;0.00;;;;;13.72;58.43;99823.53;5105355;27;45468;-38
2022/09/27 03:08:06;;;;;;;;;1.00;0.75;;;;;13.73;59.09;99829.66;5089224;27;46515;-38
2022/09/27 03:10:31;;;;;;;;;2.00;1.00;;;;;13.72;58.72;99823.53;5086736;27;45462;-38
2022/09/27 03:13:00;;;;;;;;;3.00;0.75;;;;;13.70;59.32;99816.66;5089918;27;45351;-39
2022/09/27 03:15:25;;;;;;;;;2.00;0.00;;;;;13.67;58.80;99820.34;5091282;27;45396;-38
2022/09/27 03:17:50;;;;;;;;;1.50;1.50;;;;;13.66;59.43;99827.34;5097277;27;61645;-38
2022/09/27 03:20:16;;;;;;;;;2.25;1.00;;;;;13.69;59.75;99836.88;5094117;27;65024;-38
2022/09/27 03:22:42;;;;;;;;;2.00;0.25;;;;;13.71;60.16;99813.13;5097635;27;45361;-38
2022/09/27 03:25:08;;;;;;;;;0.00;0.00;;;;;13.68;60.13;99807.06;5093494;27;45484;-38
2022/09/27 03:27:33;;;;;;;;;0.00;0.00;;;;;13.64;60.55;99816.06;5090989;27;47563;-38
2022/09/27 03:29:59;;;;;;;;;2.00;1.75;;;;;13.62;60.88;99822.34;5087076;27;59744;-38
2022/09/27 03:32:25;;;;;;;;;0.75;0.50;;;;;13.61;60.77;99820.66;5092614;27;45207;-38
2022/09/27 03:34:50;;;;;;;;;1.00;1.00;;;;;13.58;61.12;99824.31;5087435;27;45727;-39
2022/09/27 03:37:16;;;;;;;;;0.75;0.50;;;;;13.58;61.20;99823.44;5094889;27;61663;-38
2022/09/27 03:39:41;;;;;;;;;1.00;1.00;;;;;13.57;60.79;99812.09;5095625;27;45435;-38
2022/09/27 03:42:06;;;;;;;;;2.25;1.00;;;;;13.57;60.79;99811.25;5094887;27;45248;-38
2022/09/27 03:44:32;;;;;;;;;3.50;1.00;;;;;13.50;61.10;99820.38;5091861;27;60591;-39
2022/09/27 03:46:57;;;;;;;;;1.50;1.00;;;;;13.56;61.30;99820.03;5094443;27;65969;-39
2022/09/27 03:49:23;;;;;;;;;1.25;1.00;;;;;13.55;61.35;99813.09;5094844;27;45467;-39
2022/09/27 03:51:48;;;;;;;;;1.00;1.00;;;;;13.56;61.31;99813.00;5102726;27;45387;-38
2022/09/27 03:54:14;;;;;;;;;2.75;1.50;;;;;13.53;60.90;99813.19;5086048;27;52247;-38
2022/09/27 03:56:39;;;;;;;;;3.75;1.00;;;;;13.53;61.12;99809.69;5091988;27;47497;-38
2022/09/27 03:59:04;;;;;;;;;1.00;1.00;;;;;13.53;61.58;99813.19;5096459;27;45420;-38
2022/09/27 04:01:30;;;;;;;;;1.00;0.25;;;;;13.53;61.07;99813.19;5090382;27;62507;-38
2022/09/27 04:03:55;;;;;;;;;0.00;0.00;;;;;13.52;60.92;99808.84;5097207;27;60039;-38
2022/09/27 04:06:21;;;;;;;;;1.00;1.00;;;;;13.49;61.53;99803.75;5088534;27;62149;-38
2022/09/27 04:08:47;;;;;;;;;3.00;1.00;;;;;13.47;61.42;99798.59;5098086;27;46090;-38
2022/09/27 04:11:14;;;;;;;;;0.75;0.75;;;;;13.46;60.78;99801.31;5088517;27;45275;-38
2022/09/27 04:13:39;;;;;;;;;1.00;0.25;;;;;13.43;60.92;99807.56;5084626;27;45225;-38
2022/09/27 04:16:05;;;;;;;;;3.00;0.25;;;;;13.42;61.14;99797.13;5098092;27;45851;-38
2022/09/27 04:18:30;;;;;;;;;2.25;1.00;;;;;13.43;61.39;99801.47;5086689;27;45481;-38
2022/09/27 04:20:56;;;;;;;;;1.50;1.00;;;;;13.41;61.66;99793.66;5092431;27;45457;-38
2022/09/27 04:23:21;;;;;;;;;3.00;1.75;;;;;13.39;61.46;99787.66;5095716;27;65212;-38
2022/09/27 04:25:47;;;;;;;;;2.50;1.00;;;;;13.36;61.52;99786.97;5094740;27;46250;-39
2022/09/27 04:28:12;;;;;;;;;3.75;2.00;;;;;13.34;61.38;99794.91;5092341;27;63448;-38
2022/09/27 04:30:38;;;;;;;;;0.75;0.75;;;;;13.29;61.72;99797.75;5084323;27;57576;-38
2022/09/27 04:33:04;;;;;;;;;1.50;0.00;;;;;13.27;61.49;99783.84;5088873;27;64375;-38
2022/09/27 04:38:13;;;;;;;;;1.00;1.00;;;;;13.30;62.26;99790.75;5100961;27;45491;-38
2022/09/27 04:40:39;;;;;;;;;2.00;0.25;;;;;13.35;61.83;99795.75;5101711;27;45909;-38
2022/09/27 04:43:04;;;;;;;;;1.00;1.00;;;;;13.37;61.54;99792.13;5099033;27;45518;-38
2022/09/27 04:45:30;;;;;;;;;1.25;1.25;;;;;13.39;61.86;99792.91;5096203;27;61508;-38
2022/09/27 04:47:55;;;;;;;;;0.75;0.00;;;;;13.39;61.60;99792.91;5085222;27;45418;-38
2022/09/27 04:50:21;;;;;;;;;1.00;1.00;;;;;13.42;61.55;99799.75;5088317;27;45405;-38
2022/09/27 04:52:53;;;;;;;;;2.25;1.00;;;;;13.44;61.53;99792.66;5089620;27;63185;-38
2022/09/27 04:55:19;;;;;;;;;2.50;1.00;;;;;13.46;61.97;99789.00;5095385;27;45384;-38
2022/09/27 04:57:45;;;;;;;;;2.00;0.00;;;;;13.47;61.85;99793.34;5084039;27;45840;-38
2022/09/27 05:00:11;;;;;;;;;1.00;1.00;;;;;13.46;61.46;99796.91;5089161;27;45460;-38
2022/09/27 05:02:36;;;;;;;;;0.00;0.00;;;;;13.45;61.71;99800.44;5089346;27;45573;-40
2022/09/27 05:05:02;;;;;;;;;0.00;0.00;;;;;13.46;61.18;99796.06;5092184;27;45339;-38
2022/09/27 05:07:28;;;;;;;;;0.75;0.75;;;;;13.46;61.78;99810.03;5085521;27;45377;-38
2022/09/27 05:09:54;;;;;;;;;2.00;1.00;;;;;13.48;61.35;99818.69;5095792;27;45499;-38
2022/09/27 05:12:20;;;;;;;;;2.00;1.00;;;;;13.50;61.71;99808.09;5097140;27;45257;-38
2022/09/27 05:14:45;;;;;;;;;0.00;0.00;;;;;13.48;62.29;99808.16;5083708;27;46475;-39
2022/09/27 05:17:11;;;;;;;;;1.00;1.00;;;;;13.48;62.40;99800.28;5109614;27;45295;-39
2022/09/27 05:19:38;;;;;;;;;2.50;1.25;;;;;13.49;62.61;99790.59;5090192;27;45441;-39
2022/09/27 05:22:06;;;;;;;;;1.00;1.00;;;;;13.50;62.29;99787.06;5094852;27;45508;-39
2022/09/27 05:24:32;;;;;;;;;3.75;1.00;;;;;13.50;63.63;99796.75;5094376;27;46384;-39
2022/09/27 05:26:59;;;;;;;;;2.50;1.00;;;;;13.47;62.18;99801.22;5093325;27;45457;-39
2022/09/27 05:29:24;;;;;;;;;1.00;1.00;;;;;13.46;62.10;99799.53;5101311;27;45300;-39
2022/09/27 05:31:49;;;;;;;;;2.00;0.25;;;;;13.45;62.56;99789.94;5088310;27;53425;-38
2022/09/27 05:34:15;;;;;;;;;2.75;1.00;;;;;13.47;62.38;99814.38;5088688;27;46062;-39
2022/09/27 05:36:41;;;;;;;;;3.00;1.00;;;;;13.46;62.33;99812.66;5088912;27;45363;-38
2022/09/27 05:39:06;;;;;;;;;1.00;1.00;;;;;13.46;62.36;99812.66;5084998;27;50094;-38
2022/09/27 05:41:32;;;;;;;;;2.50;1.00;;;;;13.47;62.14;99810.88;5093321;27;45591;-38
2022/09/27 05:43:58;;;;;;;;;1.00;1.00;;;;;13.47;62.50;99821.38;5093535;27;67612;-38
2022/09/27 05:46:23;;;;;;;;;3.50;1.50;;;;;13.43;61.94;99811.97;5095512;27;45343;-38
2022/09/27 05:48:49;;;;;;;;;2.75;1.00;;;;;13.40;62.23;99805.13;5123658;27;45397;-38
2022/09/27 05:51:14;;;;;;;;;1.25;1.00;;;;;13.36;62.83;99803.56;5094583;27;64980;-38
2022/09/27 05:53:39;;;;;;;;;2.00;1.00;;;;;13.32;62.80;99799.41;5086519;27;45833;-38
2022/09/27 05:56:05;;;;;;;;;4.50;1.50;;;;;13.32;63.32;99799.41;5093866;27;62569;-38
2022/09/27 05:58:31;;;;;;;;;2.75;1.00;;;;;13.31;62.85;99789.81;5091464;27;45483;-38
2022/09/27 06:00:56;;;;;;;;;3.00;1.00;;;;;13.30;62.66;99786.31;5094800;27;65487;-38
2022/09/27 06:03:21;;;;;;;;;5.00;1.75;;;;;13.30;62.41;99788.94;5097551;27;45575;-38
2022/09/27 06:05:47;;;;;;;;;2.00;2.00;;;;;13.29;62.26;99787.25;5093235;27;45496;-38
2022/09/27 06:08:12;;;;;;;;;3.00;1.75;;;;;13.30;63.18;99782.84;5093794;27;60336;-38
2022/09/27 06:10:40;;;;;;;;;1.50;1.50;;;;;13.32;62.91;99788.06;5083834;27;45397;-38
2022/09/27 06:13:07;;;;;;;;;3.50;2.00;;;;;13.36;63.51;99798.31;5093841;27;47193;-37
2022/09/27 06:15:36;;;;;;;;;1.00;0.00;;;;;13.38;62.96;99800.88;5099988;27;45430;-38
2022/09/27 06:18:09;;;;;;;;;4.50;1.00;;;;;13.39;63.11;99807.81;5094453;27;45462;-38
2022/09/27 06:20:35;;;;;;;;;2.00;1.00;;;;;13.42;63.02;99797.13;5091973;27;45399;-38
2022/09/27 06:23:09;;;;;;;;;5.00;2.00;;;;;13.46;63.16;99793.44;5094378;27;45373;-37
2022/09/27 06:25:35;;;;;;;;;1.75;1.75;;;;;13.52;62.56;99805.38;5098731;27;46257;-38
2022/09/27 06:28:01;;;;;;;;;1.50;1.50;;;;;13.54;62.26;99798.25;5098777;27;45568;-38
2022/09/27 06:30:27;;;;;;;;;2.00;1.00;;;;;13.53;62.17;99802.69;5090354;27;45280;-38
2022/09/27 06:32:59;;;;;;;;;3.00;2.00;;;;;13.54;62.73;99798.25;5094738;27;45821;-37
2022/09/27 06:35:25;;;;;;;;;4.00;0.00;;;;;13.54;62.48;99804.34;5095837;27;45779;-38
2022/09/27 06:37:51;;;;;;;;;1.00;1.00;;;;;13.55;62.56;99802.59;5091958;27;45410;-38
2022/09/27 06:40:18;;;;;;;;;2.00;1.00;;;;;13.52;62.95;99806.22;5083687;27;45574;-38
2022/09/27 06:42:43;;;;;;;;;1.00;1.00;;;;;13.53;62.95;99799.19;5100675;27;46219;-39
2022/09/27 06:45:09;;;;;;;;;4.00;2.00;;;;;13.54;62.81;99798.25;5097153;27;45231;-40
2022/09/27 06:47:35;;;;;;;;;2.75;2.00;;;;;13.54;62.74;99793.00;5095588;27;45521;-38
2022/09/27 06:50:04;;;;;;;;;3.50;1.75;;;;;13.54;62.76;99791.22;5094809;27;45514;-38
2022/09/27 06:52:30;;;;;;;;;2.00;1.00;;;;;13.54;62.27;99796.47;5091368;27;46294;-38
2022/09/27 06:54:56;;;;;;;;;1.75;1.75;;;;;13.54;62.76;99793.00;5099796;27;45445;-38
2022/09/27 07:00:25;;;;;;;;;3.75;1.00;;;;;13.57;63.00;99796.31;5100833;27;45254;-38
2022/09/27 07:02:52;;;;;;;;;2.00;1.00;;;;;13.60;62.52;99804.03;5092745;27;46556;-38
2022/09/27 07:05:18;;;;;;;;;2.25;1.00;;;;;13.62;62.21;99807.44;5090401;27;45498;-38
2022/09/27 07:07:43;;;;;;;;;3.50;2.00;;;;;13.64;62.03;99820.50;5097052;27;45302;-38
2022/09/27 07:10:10;;;;;;;;;1.00;1.00;;;;;13.58;61.96;99803.28;5099453;27;45329;-38
2022/09/27 07:12:36;;;;;;;;;2.00;2.00;;;;;13.67;62.43;99825.59;5094911;27;45520;-38
2022/09/27 07:15:02;;;;;;;;;1.00;1.00;;;;;13.72;62.43;99820.06;5098702;27;45789;-38
2022/09/27 07:17:27;;;;;;;;;1.75;1.75;;;;;13.76;62.02;99832.13;5097140;27;45267;-38
2022/09/27 07:19:53;;;;;;;;;1.75;1.00;;;;;13.77;62.24;99831.19;5097249;27;45464;-38
2022/09/27 07:22:18;;;;;;;;;3.75;2.00;;;;;13.79;62.27;99831.94;5081789;27;46024;-37
2022/09/27 07:24:44;;;;;;;;;3.00;1.50;;;;;13.83;62.39;99836.13;5097100;27;45402;-37
2022/09/27 07:27:09;;;;;;;;;1.00;1.00;;;;;13.89;62.34;99838.41;5091788;27;45699;-38
2022/09/27 07:29:35;;;;;;;;;2.50;1.00;;;;;13.94;62.30;99840.78;5098638;27;61502;-38
2022/09/27 07:32:01;;;;;;;;;4.75;3.00;;;;;13.99;62.22;99847.47;5098020;27;46012;-38
2022/09/27 07:34:26;;;;;;;;;3.00;1.00;;;;;14.03;61.90;99856.88;5100027;27;45257;-38
2022/09/27 07:36:53;;;;;;;;;2.00;2.00;;;;;14.09;61.62;99852.22;5087049;27;45489;-38
2022/09/27 07:39:21;;;;;;;;;2.00;1.00;;;;;14.14;61.83;99855.44;5099087;27;45709;-38
2022/09/27 07:41:46;;;;;;;;;0.50;0.50;;;;;14.18;61.54;99859.59;5095605;27;46424;-39
2022/09/27 07:44:15;;;;;;;;;2.75;1.00;;;;;14.19;61.34;99851.63;5097447;27;45384;-46
2022/09/27 07:46:40;;;;;;;;;1.50;1.50;;;;;14.23;61.64;99855.75;5099397;27;45361;-38
2022/09/27 07:49:06;;;;;;;;;4.75;2.25;;;;;14.29;61.27;99853.72;5097850;27;45478;-38
2022/09/27 07:51:32;;;;;;;;;0.75;0.50;;;;;14.35;61.14;99853.41;5096875;27;45246;-38
2022/09/27 07:54:00;;;;;;;;;3.75;1.25;;;;;14.36;61.06;99858.56;5094548;27;45755;-38
2022/09/27 07:56:25;;;;;;;;;2.25;2.00;;;;;14.40;60.89;99862.72;5088658;27;45450;-38
2022/09/27 07:58:51;;;;;;;;;2.25;1.00;;;;;14.43;60.96;99870.44;5095812;27;45361;-38
2022/09/27 08:01:16;;;;;;;;;6.50;2.25;;;;;14.46;61.18;99873.84;5101538;27;66298;-38
2022/09/27 08:03:42;;;;;;;;;3.00;1.25;;;;;14.51;60.81;99874.44;5097527;27;69536;-39
2022/09/27 08:06:07;;;;;;;;;3.00;2.25;;;;;14.55;61.06;99871.50;5098678;27;45513;-39
2022/09/27 08:08:33;;;;;;;;;2.00;2.00;;;;;14.61;60.80;99884.38;5097225;27;60031;-39
2022/09/27 08:10:58;;;;;;;;;4.00;2.00;;;;;14.67;60.50;99887.59;5090023;27;46150;-39
2022/09/27 08:13:23;;;;;;;;;10.00;6.50;;;;;14.68;60.81;99884.88;5099541;27;45500;-39
2022/09/27 08:15:51;;;;;;;;;8.50;2.25;;;;;14.71;60.42;99886.47;5099873;27;45549;-39
2022/09/27 08:18:16;;;;;;;;;5.00;2.00;;;;;14.73;60.44;99880.19;5099394;27;45238;-43
2022/09/27 08:20:42;;;;;;;;;9.00;7.00;;;;;14.75;60.46;99886.22;5096580;27;46203;-38
2022/09/27 08:23:07;;;;;;;;;6.00;3.00;;;;;14.75;59.97;99883.59;5068102;27;45304;-39
2022/09/27 08:25:33;;;;;;;;;3.00;1.25;;;;;14.79;59.60;99887.72;5090121;27;45401;-39
2022/09/27 08:28:00;;;;;;;;;1.00;1.00;;;;;14.83;59.47;99879.66;5085452;27;45507;-39
2022/09/27 08:30:27;;;;;;;;;5.00;3.00;;;;;14.87;59.77;99891.69;5081939;27;45983;-39
2022/09/27 08:32:57;;;;;;;;;3.25;1.25;;;;;14.93;59.79;99886.09;5095424;27;45986;-39
2022/09/27 08:35:22;;;;;;;;;2.75;1.50;;;;;15.02;59.58;99896.06;5080292;27;45249;-39
2022/09/27 08:37:56;;;;;;;;;2.50;2.50;;;;;15.09;59.79;99902.69;5093853;27;45265;-39
2022/09/27 08:40:23;;;;;;;;;2.75;1.50;;;;;15.12;59.52;99910.41;5091928;27;46027;-40
2022/09/27 08:43:01;;;;;;;;;1.75;1.75;;;;;15.14;58.91;99903.25;5098803;27;45241;-39
2022/09/27 08:45:34;;;;;;;;;3.25;1.25;;;;;15.17;59.25;99905.72;5097698;27;45400;-40
2022/09/27 08:48:01;;;;;;;;;3.25;1.75;;;;;15.22;58.72;99905.41;5097841;27;45346;-37
2022/09/27 08:50:34;;;;;;;;;2.50;2.00;;;;;15.25;58.30;99912.31;5097618;27;45417;-38
2022/09/27 08:53:17;;;;;;;;;1.25;0.00;;;;;15.28;58.61;99914.75;5079157;27;45302;-37
2022/09/27 08:55:46;;;;;;;;;1.75;1.75;;;;;15.31;58.54;99909.31;5093941;27;45296;-38
2022/09/27 08:58:20;;;;;;;;;2.75;1.50;;;;;15.30;58.60;99908.47;5112388;27;45292;-37
2022/09/27 09:00:45;;;;;;;;;1.75;0.75;;;;;15.28;58.48;99905.06;5099222;27;46328;-39
2022/09/27 09:03:18;;;;;;;;;2.25;0.00;;;;;15.25;58.97;99892.06;5097768;27;45575;-39
2022/09/27 09:05:51;;;;;;;;;1.50;1.00;;;;;15.24;58.67;99900.91;5097759;27;45469;-38
2022/09/27 09:08:19;;;;;;;;;1.00;1.00;;;;;15.21;58.47;99897.59;5097383;27;45442;-38
2022/09/27 09:13:43;;;;;;;;;3.75;1.00;;;;;15.20;58.70;99909.94;5100286;27;45674;-37
2022/09/27 09:16:37;;;;;;;;;3.00;1.50;;;;;15.14;58.20;99916.44;5083891;27;45329;-38
2022/09/27 09:19:35;;;;;;;;;1.00;1.00;;;;;15.10;58.63;99907.03;5081056;27;45489;-38
2022/09/27 09:22:06;;;;;;;;;0.75;0.75;;;;;15.11;58.92;99907.88;5085917;27;48355;-38
2022/09/27 09:24:46;;;;;;;;;3.75;0.50;;;;;15.12;58.86;99913.03;5102148;27;45828;-38
2022/09/27 09:27:29;;;;;;;;;4.75;2.25;;;;;15.14;58.48;99905.88;5098752;27;45412;-38
2022/09/27 09:30:04;;;;;;;;;4.75;0.25;;;;;15.16;58.75;99905.81;5099276;27;45336;-38
2022/09/27 09:32:48;;;;;;;;;4.50;0.75;;;;;15.24;59.10;99897.44;5096663;27;46164;-38
2022/09/27 09:35:53;;;;;;;;;0.75;0.75;;;;;15.34;59.17;99886.25;5097796;27;45338;-38
2022/09/27 09:38:37;;;;;;;;;2.00;0.75;;;;;15.44;58.58;99888.31;5097834;27;45469;-38
2022/09/27 09:41:09;;;;;;;;;1.75;1.25;;;;;15.49;58.09;99876.56;5099511;27;45297;-37
2022/09/27 09:43:42;;;;;;;;;1.75;0.75;;;;;15.56;57.74;99877.88;5087648;27;46095;-38
2022/09/27 09:46:12;;;;;;;;;1.75;1.75;;;;;15.60;57.55;99862.72;5093359;27;45855;-37
2022/09/27 09:48:40;;;;;;;;;2.75;2.00;;;;;15.64;57.10;99858.09;5081803;27;45373;-38
2022/09/27 09:51:12;;;;;;;;;3.00;1.25;;;;;15.65;56.94;99868.56;5097833;27;45229;-38
2022/09/27 09:53:46;;;;;;;;;2.25;1.25;;;;;15.67;57.39;99864.03;5097122;27;45475;-38
2022/09/27 09:56:34;;;;;;;;;2.00;2.00;;;;;15.66;56.09;99867.59;5097385;27;45428;-38
2022/09/27 09:59:14;;;;;;;;;0.75;0.75;;;;;15.69;56.61;99856.03;5101705;27;45323;-38
2022/09/27 10:01:45;;;;;;;;;1.00;1.00;;;;;15.73;56.19;99852.25;5096318;27;45615;-38
2022/09/27 10:04:17;;;;;;;;;0.00;0.00;;;;;15.75;55.54;99853.03;5098091;27;46404;-38
2022/09/27 10:06:42;;;;;;;;;1.00;1.00;;;;;15.75;54.85;99851.22;5100077;27;45423;-38
2022/09/27 10:09:10;;;;;;;;;1.00;1.00;;;;;15.78;54.85;99844.09;5100423;27;45294;-38
2022/09/27 10:11:39;;;;;;;;;2.00;1.00;;;;;15.81;54.50;99850.00;5074481;27;45508;-38
2022/09/27 10:14:11;;;;;;;;;1.00;0.75;;;;;15.84;54.00;99835.75;5099340;27;45328;-38
2022/09/27 10:16:36;;;;;;;;;2.50;0.75;;;;;15.89;54.56;99839.81;5101591;27;45173;-37
2022/09/27 10:19:04;;;;;;;;;4.25;1.00;;;;;15.98;54.45;99832.25;5095267;27;45249;-38
2022/09/27 10:21:30;;;;;;;;;2.00;0.75;;;;;16.08;54.68;99830.72;5098494;27;45455;-38
2022/09/27 10:24:16;;;;;;;;;2.00;1.50;;;;;16.20;54.14;99835.22;5096017;27;45535;-39
2022/09/27 10:26:43;;;;;;;;;3.50;1.00;;;;;16.24;53.66;99833.22;5098508;27;45552;-39
2022/09/27 10:29:15;;;;;;;;;3.00;2.00;;;;;16.30;53.63;99832.81;5095991;27;45379;-39
2022/09/27 10:31:46;;;;;;;;;1.00;1.00;;;;;16.33;53.44;99832.59;5095536;27;45262;-38
2022/09/27 10:34:24;;;;;;;;;2.00;0.00;;;;;16.33;53.15;99835.25;5096863;27;46949;-37
2022/09/27 10:37:11;;;;;;;;;2.00;0.50;;;;;16.30;52.38;99838.09;5096987;27;45310;-37
2022/09/27 10:39:39;;;;;;;;;2.00;0.75;;;;;16.26;52.38;99837.44;5097656;27;45402;-38
2022/09/27 10:42:34;;;;;;;;;0.00;0.00;;;;;16.27;51.99;99841.78;5096254;27;45353;-38
2022/09/27 10:45:25;;;;;;;;;3.00;0.00;;;;;16.27;51.34;99846.19;5086717;27;46143;-39
2022/09/27 10:47:50;;;;;;;;;1.75;1.00;;;;;16.25;52.13;99842.81;5086968;27;45598;-40
2022/09/27 10:50:20;;;;;;;;;4.00;2.00;;;;;16.22;51.99;99850.94;5085858;27;47348;-39
2022/09/27 10:52:46;;;;;;;;;3.25;2.00;;;;;16.17;52.69;99848.59;5100765;27;45153;-39
2022/09/27 10:55:33;;;;;;;;;2.00;1.00;;;;;16.14;52.87;99847.00;5096173;27;45363;-38
2022/09/27 10:57:58;;;;;;;;;3.50;3.00;;;;;16.09;53.32;99842.97;5100004;27;45890;-39
2022/09/27 11:00:27;;;;;;;;;6.00;4.00;;;;;16.09;54.24;99840.31;5098445;27;63402;-38
2022/09/27 11:02:56;;;;;;;;;1.75;1.75;;;;;16.08;54.72;99839.47;5092761;27;45548;-38
2022/09/27 11:05:26;;;;;;;;;2.25;2.00;;;;;16.02;55.24;99842.50;5088598;27;46247;-38
2022/09/27 11:07:57;;;;;;;;;3.00;2.75;;;;;16.01;55.62;99837.34;5094647;27;45712;-38
2022/09/27 11:10:32;;;;;;;;;6.25;2.50;;;;;15.96;55.36;99842.06;5100861;27;45198;-38
2022/09/27 11:13:17;;;;;;;;;2.00;2.00;;;;;15.86;55.35;99829.44;5095205;27;45208;-38
2022/09/27 11:16:01;;;;;;;;;3.75;3.00;;;;;15.81;56.00;99831.53;5097774;27;45786;-39
2022/09/27 11:19:02;;;;;;;;;6.50;3.00;;;;;15.82;55.89;99832.38;5096828;27;45921;-39
2022/09/27 11:21:28;;;;;;;;;5.50;5.00;;;;;15.75;56.13;99840.66;5058363;27;45420;-39
2022/09/27 11:24:15;;;;;;;;;6.75;3.75;;;;;15.67;56.22;99837.66;5094390;27;45514;-39
2022/09/27 11:27:25;;;;;;;;;4.00;3.00;;;;;15.63;56.31;99841.41;5099013;27;45392;-39
2022/09/27 11:30:11;;;;;;;;;3.00;1.75;;;;;15.62;56.67;99834.44;5096420;27;45836;-39
2022/09/27 11:32:45;;;;;;;;;2.00;2.00;;;;;15.61;56.54;99845.94;5092296;27;45405;-39
2022/09/27 11:35:32;;;;;;;;;6.00;3.25;;;;;15.62;56.50;99836.25;5090592;27;45266;-39
2022/09/27 11:38:10;;;;;;;;;4.25;2.50;;;;;15.63;56.58;99836.13;5099037;27;45453;-39
2022/09/27 11:40:54;;;;;;;;;3.25;3.25;;;;;15.61;56.50;99838.03;5094586;27;45312;-39
2022/09/27 11:43:35;;;;;;;;;1.75;1.75;;;;;15.55;56.35;99844.53;5093326;27;45537;-39
2022/09/27 11:46:19;;;;;;;;;4.00;2.75;;;;;15.48;56.42;99839.75;5098158;27;45559;-38
2022/09/27 11:49:35;;;;;;;;;5.75;5.00;;;;;15.45;56.49;99839.91;5094653;27;46419;-39
2022/09/27 11:52:43;;;;;;;;;10.75;6.25;;;;;15.47;56.55;99828.31;5083020;27;45470;-39
2022/09/27 11:55:08;;;;;;;;;7.25;4.75;;;;;15.53;56.35;99814.78;5077010;27;45456;-39
2022/09/27 11:57:44;;;;;;;;;4.50;3.50;;;;;15.58;56.09;99809.19;5095676;27;45397;-39
2022/09/27 12:00:22;;;;;;;;;5.25;1.75;;;;;15.63;55.76;99807.13;5097587;27;46773;-39